Terminal Aerodrome Forecast
Issued by NWS

Current Version | Previous Version | Text Only | Print | Product List | Glossary Off
Versions: 1 2 3 4 5 6 7 8 9 10 11 12 13 14 15

000
FTUS41 KRNK 131140 AAA
TAFLWB
TAF AMD
KLWB 131140Z 1312/1412 29012G21KT P6SM SCT030
     FM131900 25009KT P6SM FEW080
     FM132100 23008KT P6SM BKN080
     FM140500 26012G21KT P6SM BKN060
     FM140900 28014G24KT P6SM BKN030=

USA.gov is the U.S. government's official web portal to all federal, state and local government web resources and services.